sensor_id;sensor_type;location;lat;lon;timestamp;pressure;altitude;pressure_sealevel;temperature;humidity
21102;BME280;10709;49.006;12.100;2023-07-20T00:01:27;48695.09;;;-146.00;55.45
21102;BME280;10709;49.006;12.100;2023-07-20T00:03:54;48689.22;;;-146.00;55.85
21102;BME280;10709;49.006;12.100;2023-07-20T00:06:24;48671.59;;;-146.00;55.80
21102;BME280;10709;49.006;12.100;2023-07-20T00:08:55;48693.16;;;-146.00;56.32
21102;BME280;10709;49.006;12.100;2023-07-20T00:11:26;48677.47;;;-146.00;56.24
21102;BME280;10709;49.006;12.100;2023-07-20T00:13:53;48671.59;;;-146.00;56.53
21102;BME280;10709;49.006;12.100;2023-07-20T00:18:55;48659.84;;;-146.00;56.49
21102;BME280;10709;49.006;12.100;2023-07-20T00:21:22;48716.66;;;-146.00;56.30
21102;BME280;10709;49.006;12.100;2023-07-20T00:23:49;48681.41;;;-146.00;56.52
21102;BME280;10709;49.006;12.100;2023-07-20T00:54:27;48665.72;;;-146.00;57.33
21102;BME280;10709;49.006;12.100;2023-07-20T00:56:54;48667.69;;;-146.00;57.55
21102;BME280;10709;49.006;12.100;2023-07-20T00:59:21;48652.00;;;-146.00;57.57
21102;BME280;10709;49.006;12.100;2023-07-20T01:01:48;48663.75;;;-146.00;57.75
21102;BME280;10709;49.006;12.100;2023-07-20T01:04:15;48679.44;;;-146.00;57.81
21102;BME280;10709;49.006;12.100;2023-07-20T01:09:34;48689.22;;;-146.00;58.24
21102;BME280;10709;49.006;12.100;2023-07-20T01:14:43;48681.41;;;-146.00;57.93
21102;BME280;10709;49.006;12.100;2023-07-20T01:17:10;48722.53;;;-146.00;58.05
21102;BME280;10709;49.006;12.100;2023-07-20T01:19:36;48706.84;;;-146.00;58.30
21102;BME280;10709;49.006;12.100;2023-07-20T01:22:12;48706.84;;;-146.00;58.43
21102;BME280;10709;49.006;12.100;2023-07-20T01:30:29;48681.41;;;-146.00;59.09
21102;BME280;10709;49.006;12.100;2023-07-20T01:33:02;48675.50;;;-146.00;59.01
21102;BME280;10709;49.006;12.100;2023-07-20T01:35:30;48665.72;;;-146.00;58.99
21102;BME280;10709;49.006;12.100;2023-07-20T01:40:42;48671.59;;;-146.00;59.11
21102;BME280;10709;49.006;12.100;2023-07-20T01:43:10;48648.09;;;-146.00;59.24
21102;BME280;10709;49.006;12.100;2023-07-20T01:45:38;48653.97;;;-146.00;58.99
21102;BME280;10709;49.006;12.100;2023-07-20T02:01:31;48677.47;;;-146.00;59.88
21102;BME280;10709;49.006;12.100;2023-07-20T02:03:59;48636.34;;;-146.00;59.87
21102;BME280;10709;49.006;12.100;2023-07-20T02:15:09;48679.44;;;-146.00;60.24
21102;BME280;10709;49.006;12.100;2023-07-20T02:20:18;48675.50;;;-146.00;60.75
21102;BME280;10709;49.006;12.100;2023-07-20T02:22:47;48679.44;;;-146.00;61.02
21102;BME280;10709;49.006;12.100;2023-07-20T02:25:14;48644.16;;;-146.00;60.88
21102;BME280;10709;49.006;12.100;2023-07-20T02:27:41;48653.97;;;-146.00;61.37
21102;BME280;10709;49.006;12.100;2023-07-20T02:30:08;48652.00;;;-146.00;61.17
21102;BME280;10709;49.006;12.100;2023-07-20T02:32:36;48700.97;;;-146.00;61.45
21102;BME280;10709;49.006;12.100;2023-07-20T02:35:05;48681.41;;;-146.00;61.56
21102;BME280;10709;49.006;12.100;2023-07-20T02:53:47;48648.09;;;-146.00;61.95
21102;BME280;10709;49.006;12.100;2023-07-20T02:56:15;48659.84;;;-146.00;62.03
21102;BME280;10709;49.006;12.100;2023-07-20T02:58:42;48695.09;;;-146.00;62.03
21102;BME280;10709;49.006;12.100;2023-07-20T03:01:12;48663.75;;;-146.00;61.96
21102;BME280;10709;49.006;12.100;2023-07-20T03:03:42;48663.75;;;-146.00;61.93
21102;BME280;10709;49.006;12.100;2023-07-20T03:06:16;48663.75;;;-146.00;62.18
21102;BME280;10709;49.006;12.100;2023-07-20T03:08:43;48665.72;;;-146.00;61.72
21102;BME280;10709;49.006;12.100;2023-07-20T03:11:11;48667.69;;;-146.00;61.73
21102;BME280;10709;49.006;12.100;2023-07-20T03:13:38;48675.50;;;-146.00;61.50
21102;BME280;10709;49.006;12.100;2023-07-20T03:16:05;48663.75;;;-146.00;61.63
21102;BME280;10709;49.006;12.100;2023-07-20T03:23:55;48679.44;;;-146.00;61.48
21102;BME280;10709;49.006;12.100;2023-07-20T03:26:22;48671.59;;;-146.00;61.70
21102;BME280;10709;49.006;12.100;2023-07-20T03:28:49;48667.69;;;-146.00;61.74
21102;BME280;10709;49.006;12.100;2023-07-20T03:31:17;48675.50;;;-146.00;61.69
21102;BME280;10709;49.006;12.100;2023-07-20T03:33:44;48679.44;;;-146.00;61.42
21102;BME280;10709;49.006;12.100;2023-07-20T03:36:11;48667.69;;;-146.00;61.54
21102;BME280;10709;49.006;12.100;2023-07-20T03:38:39;48667.69;;;-146.00;61.27
21102;BME280;10709;49.006;12.100;2023-07-20T03:41:06;48663.75;;;-146.00;61.42
21102;BME280;10709;49.006;12.100;2023-07-20T03:43:33;48683.34;;;-146.00;61.54
21102;BME280;10709;49.006;12.100;2023-07-20T03:46:00;48681.41;;;-146.00;61.75
21102;BME280;10709;49.006;12.100;2023-07-20T03:48:27;48655.94;;;-146.00;61.93
21102;BME280;10709;49.006;12.100;2023-07-20T03:50:55;48675.50;;;-146.00;61.75
21102;BME280;10709;49.006;12.100;2023-07-20T03:53:23;48669.63;;;-146.00;61.65
21102;BME280;10709;49.006;12.100;2023-07-20T03:55:51;48691.19;;;-146.00;61.68
21102;BME280;10709;49.006;12.100;2023-07-20T03:58:19;48673.56;;;-146.00;61.50
21102;BME280;10709;49.006;12.100;2023-07-20T04:00:50;48648.09;;;-146.00;61.82
21102;BME280;10709;49.006;12.100;2023-07-20T04:03:19;48663.75;;;-146.00;61.77
21102;BME280;10709;49.006;12.100;2023-07-20T04:05:46;48640.25;;;-146.00;61.79
21102;BME280;10709;49.006;12.100;2023-07-20T04:08:13;48648.09;;;-146.00;61.71
21102;BME280;10709;49.006;12.100;2023-07-20T04:10:43;48644.16;;;-146.00;61.77
21102;BME280;10709;49.006;12.100;2023-07-20T04:13:10;48675.50;;;-146.00;61.85
21102;BME280;10709;49.006;12.100;2023-07-20T04:15:37;48667.69;;;-146.00;61.68
21102;BME280;10709;49.006;12.100;2023-07-20T04:18:04;48648.09;;;-146.00;61.59
21102;BME280;10709;49.006;12.100;2023-07-20T04:20:30;48691.19;;;-146.00;61.50
21102;BME280;10709;49.006;12.100;2023-07-20T04:22:58;48659.84;;;-146.00;61.58
21102;BME280;10709;49.006;12.100;2023-07-20T04:25:25;48659.84;;;-146.00;61.55
21102;BME280;10709;49.006;12.100;2023-07-20T04:27:52;48667.69;;;-146.00;61.60
21102;BME280;10709;49.006;12.100;2023-07-20T04:30:19;48671.59;;;-146.00;61.53
21102;BME280;10709;49.006;12.100;2023-07-20T04:32:48;48661.81;;;-146.00;61.39
21102;BME280;10709;49.006;12.100;2023-07-20T04:35:53;48675.50;;;-146.00;61.88
21102;BME280;10709;49.006;12.100;2023-07-20T04:38:20;48671.59;;;-146.00;61.18
21102;BME280;10709;49.006;12.100;2023-07-20T04:40:49;48671.59;;;-146.00;61.22
21102;BME280;10709;49.006;12.100;2023-07-20T04:43:17;48677.47;;;-146.00;60.98
21102;BME280;10709;49.006;12.100;2023-07-20T04:45:45;48677.47;;;-146.00;60.91
21102;BME280;10709;49.006;12.100;2023-07-20T04:48:14;48667.69;;;-146.00;60.94
21102;BME280;10709;49.006;12.100;2023-07-20T04:50:43;48699.03;;;-146.00;60.54
21102;BME280;10709;49.006;12.100;2023-07-20T04:53:11;48648.09;;;-146.00;60.54
21102;BME280;10709;49.006;12.100;2023-07-20T04:55:39;48683.34;;;-146.00;60.61
21102;BME280;10709;49.006;12.100;2023-07-20T04:58:06;48683.34;;;-146.00;60.61
21102;BME280;10709;49.006;12.100;2023-07-20T05:00:33;48659.84;;;-146.00;60.45
21102;BME280;10709;49.006;12.100;2023-07-20T05:03:00;48691.19;;;-146.00;60.33
21102;BME280;10709;49.006;12.100;2023-07-20T05:05:27;48638.28;;;-146.00;60.25
21102;BME280;10709;49.006;12.100;2023-07-20T05:07:53;48655.94;;;-146.00;60.49
21102;BME280;10709;49.006;12.100;2023-07-20T05:10:21;48669.63;;;-146.00;60.51
21102;BME280;10709;49.006;12.100;2023-07-20T05:12:47;48675.50;;;-146.00;60.54
21102;BME280;10709;49.006;12.100;2023-07-20T05:15:13;48648.09;;;-146.00;60.75
21102;BME280;10709;49.006;12.100;2023-07-20T05:17:41;48640.25;;;-146.00;60.75
21102;BME280;10709;49.006;12.100;2023-07-20T05:20:09;48679.44;;;-146.00;61.08
21102;BME280;10709;49.006;12.100;2023-07-20T05:22:44;48671.59;;;-146.00;61.37
21102;BME280;10709;49.006;12.100;2023-07-20T05:25:11;48671.59;;;-146.00;61.77
21102;BME280;10709;49.006;12.100;2023-07-20T05:27:39;48655.94;;;-146.00;61.72
21102;BME280;10709;49.006;12.100;2023-07-20T05:30:08;48673.56;;;-146.00;62.44
21102;BME280;10709;49.006;12.100;2023-07-20T05:32:36;48671.59;;;-146.00;62.15
21102;BME280;10709;49.006;12.100;2023-07-20T05:35:03;48652.00;;;-146.00;62.25
21102;BME280;10709;49.006;12.100;2023-07-20T05:37:29;48691.19;;;-146.00;62.46
21102;BME280;10709;49.006;12.100;2023-07-20T05:39:57;48675.50;;;-146.00;62.54
21102;BME280;10709;49.006;12.100;2023-07-20T05:42:23;48683.34;;;-146.00;62.48
21102;BME280;10709;49.006;12.100;2023-07-20T05:44:50;48685.31;;;-146.00;62.85
21102;BME280;10709;49.006;12.100;2023-07-20T05:49:54;48644.16;;;-146.00;63.23
21102;BME280;10709;49.006;12.100;2023-07-20T05:52:23;48675.50;;;-146.00;63.34
21102;BME280;10709;49.006;12.100;2023-07-20T05:54:50;48687.28;;;-146.00;63.27
21102;BME280;10709;49.006;12.100;2023-07-20T05:57:17;48663.75;;;-146.00;63.46
21102;BME280;10709;49.006;12.100;2023-07-20T05:59:44;48669.63;;;-146.00;63.74
21102;BME280;10709;49.006;12.100;2023-07-20T06:02:11;48667.69;;;-146.00;64.21
21102;BME280;10709;49.006;12.100;2023-07-20T06:04:39;48695.09;;;-146.00;64.00
21102;BME280;10709;49.006;12.100;2023-07-20T06:07:06;48648.09;;;-146.00;64.24
21102;BME280;10709;49.006;12.100;2023-07-20T06:09:34;48665.72;;;-146.00;64.40
21102;BME280;10709;49.006;12.100;2023-07-20T06:12:03;48675.50;;;-146.00;64.88
21102;BME280;10709;49.006;12.100;2023-07-20T06:14:29;48679.44;;;-146.00;65.34
21102;BME280;10709;49.006;12.100;2023-07-20T06:16:56;48659.84;;;-146.00;65.46
21102;BME280;10709;49.006;12.100;2023-07-20T06:19:22;48671.59;;;-146.00;65.80
21102;BME280;10709;49.006;12.100;2023-07-20T06:21:49;48689.22;;;-146.00;65.48
21102;BME280;10709;49.006;12.100;2023-07-20T06:24:18;48667.69;;;-146.00;65.32
21102;BME280;10709;49.006;12.100;2023-07-20T06:26:44;48663.75;;;-146.00;64.95
21102;BME280;10709;49.006;12.100;2023-07-20T06:29:11;48691.19;;;-146.00;64.33
21102;BME280;10709;49.006;12.100;2023-07-20T06:31:38;48652.00;;;-146.00;64.67
21102;BME280;10709;49.006;12.100;2023-07-20T06:34:04;48687.28;;;-146.00;63.89
21102;BME280;10709;49.006;12.100;2023-07-20T06:36:31;48648.09;;;-146.00;63.62
21102;BME280;10709;49.006;12.100;2023-07-20T06:38:58;48671.59;;;-146.00;63.39
21102;BME280;10709;49.006;12.100;2023-07-20T06:41:27;48699.03;;;-146.00;63.25
21102;BME280;10709;49.006;12.100;2023-07-20T06:43:56;48687.28;;;-146.00;62.48
21102;BME280;10709;49.006;12.100;2023-07-20T06:46:25;48685.31;;;-146.00;61.85
21102;BME280;10709;49.006;12.100;2023-07-20T06:48:53;48675.50;;;-146.00;61.74
21102;BME280;10709;49.006;12.100;2023-07-20T06:51:24;48681.41;;;-146.00;61.54
21102;BME280;10709;49.006;12.100;2023-07-20T06:53:52;48648.09;;;-146.00;61.51
21102;BME280;10709;49.006;12.100;2023-07-20T06:56:18;48718.59;;;-146.00;61.49
21102;BME280;10709;49.006;12.100;2023-07-20T06:58:49;48699.03;;;-146.00;61.48
21102;BME280;10709;49.006;12.100;2023-07-20T07:01:15;48677.47;;;-146.00;60.83
21102;BME280;10709;49.006;12.100;2023-07-20T07:03:43;48640.25;;;-146.00;61.35
21102;BME280;10709;49.006;12.100;2023-07-20T07:06:10;48667.69;;;-146.00;60.70
21102;BME280;10709;49.006;12.100;2023-07-20T07:08:37;48706.84;;;-146.00;60.50
21102;BME280;10709;49.006;12.100;2023-07-20T07:11:04;48714.69;;;-146.00;60.30
21102;BME280;10709;49.006;12.100;2023-07-20T07:13:30;48702.94;;;-146.00;60.50
21102;BME280;10709;49.006;12.100;2023-07-20T07:15:57;48689.22;;;-146.00;60.19
21102;BME280;10709;49.006;12.100;2023-07-20T07:18:23;48687.28;;;-146.00;59.80
21102;BME280;10709;49.006;12.100;2023-07-20T07:20:52;48681.41;;;-146.00;59.34
21102;BME280;10709;49.006;12.100;2023-07-20T07:23:19;48671.59;;;-146.00;59.36
21102;BME280;10709;49.006;12.100;2023-07-20T07:25:46;48691.19;;;-146.00;59.62
21102;BME280;10709;49.006;12.100;2023-07-20T07:28:12;48693.16;;;-146.00;59.22
21102;BME280;10709;49.006;12.100;2023-07-20T07:30:39;48679.44;;;-146.00;59.39
21102;BME280;10709;49.006;12.100;2023-07-20T07:33:06;48706.84;;;-146.00;59.40
21102;BME280;10709;49.006;12.100;2023-07-20T07:35:32;48677.47;;;-146.00;59.21
21102;BME280;10709;49.006;12.100;2023-07-20T07:37:59;48712.72;;;-146.00;58.33
21102;BME280;10709;49.006;12.100;2023-07-20T07:40:44;48699.03;;;-146.00;58.58
21102;BME280;10709;49.006;12.100;2023-07-20T07:43:10;48673.56;;;-146.00;57.70
21102;BME280;10709;49.006;12.100;2023-07-20T07:45:38;48702.94;;;-146.00;56.94
21102;BME280;10709;49.006;12.100;2023-07-20T07:48:05;48673.56;;;-146.00;57.08
21102;BME280;10709;49.006;12.100;2023-07-20T07:50:33;48683.34;;;-146.00;57.03
21102;BME280;10709;49.006;12.100;2023-07-20T07:53:00;48706.84;;;-146.00;57.24
21102;BME280;10709;49.006;12.100;2023-07-20T07:55:27;48679.44;;;-146.00;57.62
21102;BME280;10709;49.006;12.100;2023-07-20T07:57:54;48667.69;;;-146.00;57.57
21102;BME280;10709;49.006;12.100;2023-07-20T08:00:23;48675.50;;;-146.00;56.36
21102;BME280;10709;49.006;12.100;2023-07-20T08:02:53;48679.44;;;-146.00;55.85
21102;BME280;10709;49.006;12.100;2023-07-20T08:05:21;48708.81;;;-146.00;55.75
21102;BME280;10709;49.006;12.100;2023-07-20T08:08:09;48706.84;;;-146.00;54.50
21102;BME280;10709;49.006;12.100;2023-07-20T08:11:31;48695.09;;;-146.00;54.25
21102;BME280;10709;49.006;12.100;2023-07-20T08:19:13;48702.94;;;-146.00;53.78
21102;BME280;10709;49.006;12.100;2023-07-20T08:22:59;48734.28;;;-146.00;53.80
21102;BME280;10709;49.006;12.100;2023-07-20T08:26:52;48691.19;;;-146.00;53.42
21102;BME280;10709;49.006;12.100;2023-07-20T08:33:07;48706.84;;;-146.00;52.98
21102;BME280;10709;49.006;12.100;2023-07-20T08:37:04;48687.28;;;-146.00;55.54
21102;BME280;10709;49.006;12.100;2023-07-20T08:40:17;48687.28;;;-146.00;58.03
21102;BME280;10709;49.006;12.100;2023-07-20T08:47:07;48722.53;;;-146.00;56.28
21102;BME280;10709;49.006;12.100;2023-07-20T08:50:28;48704.91;;;-146.00;55.05
21102;BME280;10709;49.006;12.100;2023-07-20T08:54:42;48702.94;;;-146.00;49.96
21102;BME280;10709;49.006;12.100;2023-07-20T09:02:04;48691.19;;;-146.00;54.62
21102;BME280;10709;49.006;12.100;2023-07-20T09:05:54;48702.94;;;-146.00;50.30
21102;BME280;10709;49.006;12.100;2023-07-20T09:24:30;48683.34;;;-146.00;48.14
21102;BME280;10709;49.006;12.100;2023-07-20T09:32:21;48722.53;;;-146.00;47.17
21102;BME280;10709;49.006;12.100;2023-07-20T09:36:11;48714.69;;;-146.00;45.45
21102;BME280;10709;49.006;12.100;2023-07-20T09:39:51;48695.09;;;-146.00;44.88
21102;BME280;10709;49.006;12.100;2023-07-20T09:43:53;48699.03;;;-146.00;44.68
21102;BME280;10709;49.006;12.100;2023-07-20T09:51:21;48726.44;;;-146.00;44.55
21102;BME280;10709;49.006;12.100;2023-07-20T09:54:39;48693.16;;;-146.00;43.40
21102;BME280;10709;49.006;12.100;2023-07-20T10:06:42;48706.84;;;-146.00;43.29
21102;BME280;10709;49.006;12.100;2023-07-20T10:10:26;48675.50;;;-146.00;43.98
21102;BME280;10709;49.006;12.100;2023-07-20T10:25:40;48702.94;;;-146.00;43.94
21102;BME280;10709;49.006;12.100;2023-07-20T10:29:20;48700.97;;;-146.00;43.74
21102;BME280;10709;49.006;12.100;2023-07-20T10:32:43;48730.38;;;-146.00;42.29
21102;BME280;10709;49.006;12.100;2023-07-20T10:43:58;48730.38;;;-146.00;39.22
21102;BME280;10709;49.006;12.100;2023-07-20T10:51:12;48706.84;;;-146.00;39.50
21102;BME280;10709;49.006;12.100;2023-07-20T10:58:36;48714.69;;;-146.00;40.39
21102;BME280;10709;49.006;12.100;2023-07-20T11:02:20;48710.78;;;-146.00;40.21
21102;BME280;10709;49.006;12.100;2023-07-20T11:10:13;48706.84;;;-146.00;40.14
21102;BME280;10709;49.006;12.100;2023-07-20T11:14:25;48706.84;;;-146.00;41.51
21102;BME280;10709;49.006;12.100;2023-07-20T11:17:47;48726.44;;;-146.00;39.92
21102;BME280;10709;49.006;12.100;2023-07-20T11:21:54;48708.81;;;-146.00;40.19
21102;BME280;10709;49.006;12.100;2023-07-20T11:25:38;48710.78;;;-146.00;39.82
21102;BME280;10709;49.006;12.100;2023-07-20T11:33:42;48722.53;;;-146.00;40.19
21102;BME280;10709;49.006;12.100;2023-07-20T11:37:26;48695.09;;;-146.00;39.93
21102;BME280;10709;49.006;12.100;2023-07-20T11:41:18;48718.59;;;-146.00;39.72
21102;BME280;10709;49.006;12.100;2023-07-20T11:49:11;48699.03;;;-146.00;38.20
21102;BME280;10709;49.006;12.100;2023-07-20T12:08:32;48714.69;;;-146.00;38.47
21102;BME280;10709;49.006;12.100;2023-07-20T12:11:13;48722.53;;;-146.00;37.85
21102;BME280;10709;49.006;12.100;2023-07-20T12:13:57;48724.50;;;-146.00;37.39
21102;BME280;10709;49.006;12.100;2023-07-20T12:17:01;48714.69;;;-146.00;37.69
21102;BME280;10709;49.006;12.100;2023-07-20T12:19:37;48763.66;;;-146.00;38.73
21102;BME280;10709;49.006;12.100;2023-07-20T12:22:10;48734.28;;;-146.00;37.74
21102;BME280;10709;49.006;12.100;2023-07-20T12:24:42;48726.44;;;-146.00;37.29
21102;BME280;10709;49.006;12.100;2023-07-20T12:27:59;48757.78;;;-146.00;37.03
21102;BME280;10709;49.006;12.100;2023-07-20T12:35:38;48738.19;;;-146.00;37.33
21102;BME280;10709;49.006;12.100;2023-07-20T12:39:10;48718.59;;;-146.00;37.78
21102;BME280;10709;49.006;12.100;2023-07-20T12:42:27;48730.38;;;-146.00;36.81
21102;BME280;10709;49.006;12.100;2023-07-20T13:11:01;48765.63;;;-146.00;36.85
21102;BME280;10709;49.006;12.100;2023-07-20T13:13:31;48736.25;;;-146.00;36.35
21102;BME280;10709;49.006;12.100;2023-07-20T13:16:01;48718.59;;;-146.00;35.95
21102;BME280;10709;49.006;12.100;2023-07-20T13:18:28;48742.13;;;-146.00;34.93
21102;BME280;10709;49.006;12.100;2023-07-20T13:21:34;48738.19;;;-146.00;35.50
21102;BME280;10709;49.006;12.100;2023-07-20T13:33:05;48720.56;;;-146.00;35.49
21102;BME280;10709;49.006;12.100;2023-07-20T13:35:38;48689.22;;;-146.00;33.87
21102;BME280;10709;49.006;12.100;2023-07-20T14:59:11;48744.06;;;-146.00;33.53
21102;BME280;10709;49.006;12.100;2023-07-20T15:01:40;48734.28;;;-146.00;33.36
21102;BME280;10709;49.006;12.100;2023-07-20T15:04:13;48769.53;;;-146.00;34.42
21102;BME280;10709;49.006;12.100;2023-07-20T15:06:45;48738.19;;;-146.00;32.51
21102;BME280;10709;49.006;12.100;2023-07-20T15:12:48;48757.78;;;-146.00;33.07
21102;BME280;10709;49.006;12.100;2023-07-20T15:15:39;48761.72;;;-146.00;33.03
21102;BME280;10709;49.006;12.100;2023-07-20T15:21:17;48773.47;;;-146.00;32.96
21102;BME280;10709;49.006;12.100;2023-07-20T15:23:46;48722.53;;;-146.00;32.37
21102;BME280;10709;49.006;12.100;2023-07-20T15:26:19;48781.31;;;-146.00;31.92
21102;BME280;10709;49.006;12.100;2023-07-20T15:28:53;48734.28;;;-146.00;32.36
21102;BME280;10709;49.006;12.100;2023-07-20T15:31:26;48781.31;;;-146.00;32.72
21102;BME280;10709;49.006;12.100;2023-07-20T15:34:01;48724.50;;;-146.00;32.07
21102;BME280;10709;49.006;12.100;2023-07-20T15:36:39;48742.13;;;-146.00;32.73
21102;BME280;10709;49.006;12.100;2023-07-20T15:39:22;48767.59;;;-146.00;32.45
21102;BME280;10709;49.006;12.100;2023-07-20T15:41:51;48746.03;;;-146.00;32.63
21102;BME280;10709;49.006;12.100;2023-07-20T15:44:23;48746.03;;;-146.00;32.93
21102;BME280;10709;49.006;12.100;2023-07-20T15:46:58;48769.53;;;-146.00;33.06
21102;BME280;10709;49.006;12.100;2023-07-20T15:49:29;48777.38;;;-146.00;32.93
21102;BME280;10709;49.006;12.100;2023-07-20T15:52:08;48773.47;;;-146.00;32.73
21102;BME280;10709;49.006;12.100;2023-07-20T15:54:49;48730.38;;;-146.00;32.95
21102;BME280;10709;49.006;12.100;2023-07-20T15:57:27;48769.53;;;-146.00;32.56
21102;BME280;10709;49.006;12.100;2023-07-20T16:00:13;48726.44;;;-146.00;32.24
21102;BME280;10709;49.006;12.100;2023-07-20T16:03:06;48757.78;;;-146.00;32.86
21102;BME280;10709;49.006;12.100;2023-07-20T16:05:58;48769.53;;;-146.00;32.71
21102;BME280;10709;49.006;12.100;2023-07-20T16:08:50;48742.13;;;-146.00;33.27
21102;BME280;10709;49.006;12.100;2023-07-20T16:11:25;48716.66;;;-146.00;32.43
21102;BME280;10709;49.006;12.100;2023-07-20T16:14:00;48726.44;;;-146.00;32.96
21102;BME280;10709;49.006;12.100;2023-07-20T16:24:45;48724.50;;;-146.00;33.63
21102;BME280;10709;49.006;12.100;2023-07-20T16:27:12;48746.03;;;-146.00;33.34
21102;BME280;10709;49.006;12.100;2023-07-20T16:29:39;48714.69;;;-146.00;33.80
21102;BME280;10709;49.006;12.100;2023-07-20T16:32:09;48759.75;;;-146.00;33.61
21102;BME280;10709;49.006;12.100;2023-07-20T16:34:37;48757.78;;;-146.00;33.56
21102;BME280;10709;49.006;12.100;2023-07-20T16:37:06;48746.03;;;-146.00;34.04
21102;BME280;10709;49.006;12.100;2023-07-20T16:39:53;48753.88;;;-146.00;34.60
21102;BME280;10709;49.006;12.100;2023-07-20T16:42:20;48742.13;;;-146.00;33.10
21102;BME280;10709;49.006;12.100;2023-07-20T16:45:08;48742.13;;;-146.00;32.90
21102;BME280;10709;49.006;12.100;2023-07-20T16:47:35;48761.72;;;-146.00;32.82
21102;BME280;10709;49.006;12.100;2023-07-20T16:50:02;48734.28;;;-146.00;32.47
21102;BME280;10709;49.006;12.100;2023-07-20T16:52:29;48785.22;;;-146.00;32.59
21102;BME280;10709;49.006;12.100;2023-07-20T16:54:56;48738.19;;;-146.00;33.19
21102;BME280;10709;49.006;12.100;2023-07-20T17:10:54;48796.97;;;-146.00;32.65
21102;BME280;10709;49.006;12.100;2023-07-20T17:13:22;48726.44;;;-146.00;32.89
21102;BME280;10709;49.006;12.100;2023-07-20T17:15:49;48734.28;;;-146.00;32.34
21102;BME280;10709;49.006;12.100;2023-07-20T17:26:18;48718.59;;;-146.00;32.58
21102;BME280;10709;49.006;12.100;2023-07-20T17:28:48;48718.59;;;-146.00;32.33
21102;BME280;10709;49.006;12.100;2023-07-20T17:31:15;48740.16;;;-146.00;33.02
21102;BME280;10709;49.006;12.100;2023-07-20T17:33:42;48740.16;;;-146.00;32.91
21102;BME280;10709;49.006;12.100;2023-07-20T17:36:09;48726.44;;;-146.00;32.93
21102;BME280;10709;49.006;12.100;2023-07-20T17:38:38;48757.78;;;-146.00;33.02
21102;BME280;10709;49.006;12.100;2023-07-20T17:41:07;48755.84;;;-146.00;32.98
21102;BME280;10709;49.006;12.100;2023-07-20T17:43:34;48742.13;;;-146.00;33.11
21102;BME280;10709;49.006;12.100;2023-07-20T17:46:01;48746.03;;;-146.00;32.95
21102;BME280;10709;49.006;12.100;2023-07-20T17:48:32;48742.13;;;-146.00;33.09
21102;BME280;10709;49.006;12.100;2023-07-20T17:50:59;48738.19;;;-146.00;32.25
21102;BME280;10709;49.006;12.100;2023-07-20T17:53:26;48722.53;;;-146.00;32.72
21102;BME280;10709;49.006;12.100;2023-07-20T17:55:54;48714.69;;;-146.00;32.82
21102;BME280;10709;49.006;12.100;2023-07-20T17:58:21;48708.81;;;-146.00;33.06
21102;BME280;10709;49.006;12.100;2023-07-20T18:00:51;48702.94;;;-146.00;32.65
21102;BME280;10709;49.006;12.100;2023-07-20T18:03:19;48746.03;;;-146.00;32.91
21102;BME280;10709;49.006;12.100;2023-07-20T18:05:46;48730.38;;;-146.00;32.93
21102;BME280;10709;49.006;12.100;2023-07-20T18:08:13;48726.44;;;-146.00;32.86
21102;BME280;10709;49.006;12.100;2023-07-20T18:10:40;48714.69;;;-146.00;32.43
21102;BME280;10709;49.006;12.100;2023-07-20T18:13:07;48757.78;;;-146.00;32.25
21102;BME280;10709;49.006;12.100;2023-07-20T18:15:34;48738.19;;;-146.00;31.66
21102;BME280;10709;49.006;12.100;2023-07-20T18:18:01;48740.16;;;-146.00;32.11
21102;BME280;10709;49.006;12.100;2023-07-20T18:20:28;48836.16;;;-146.00;32.30
21102;BME280;10709;49.006;12.100;2023-07-20T18:22:55;48706.84;;;-146.00;32.25
21102;BME280;10709;49.006;12.100;2023-07-20T18:25:22;48722.53;;;-146.00;32.23
21102;BME280;10709;49.006;12.100;2023-07-20T18:27:49;48671.59;;;-146.00;32.59
21102;BME280;10709;49.006;12.100;2023-07-20T18:30:16;48726.44;;;-146.00;32.50
21102;BME280;10709;49.006;12.100;2023-07-20T18:32:45;48738.19;;;-146.00;32.27
21102;BME280;10709;49.006;12.100;2023-07-20T18:35:12;48736.25;;;-146.00;32.60
21102;BME280;10709;49.006;12.100;2023-07-20T18:37:39;48702.94;;;-146.00;32.47
21102;BME280;10709;49.006;12.100;2023-07-20T18:40:06;48734.28;;;-146.00;32.40
21102;BME280;10709;49.006;12.100;2023-07-20T18:42:34;48706.84;;;-146.00;32.66
21102;BME280;10709;49.006;12.100;2023-07-20T18:45:04;48702.94;;;-146.00;33.07
21102;BME280;10709;49.006;12.100;2023-07-20T18:47:31;48728.41;;;-146.00;33.27
21102;BME280;10709;49.006;12.100;2023-07-20T18:50:00;48738.19;;;-146.00;33.60
21102;BME280;10709;49.006;12.100;2023-07-20T18:52:27;48714.69;;;-146.00;33.90
21102;BME280;10709;49.006;12.100;2023-07-20T18:54:54;48730.38;;;-146.00;34.06
21102;BME280;10709;49.006;12.100;2023-07-20T19:13:43;48697.06;;;-146.00;33.83
21102;BME280;10709;49.006;12.100;2023-07-20T19:16:09;48718.59;;;-146.00;34.18
21102;BME280;10709;49.006;12.100;2023-07-20T19:18:36;48710.78;;;-146.00;34.41
21102;BME280;10709;49.006;12.100;2023-07-20T19:21:06;48710.78;;;-146.00;34.34
21102;BME280;10709;49.006;12.100;2023-07-20T19:23:33;48757.78;;;-146.00;34.29
21102;BME280;10709;49.006;12.100;2023-07-20T19:26:05;48699.03;;;-146.00;34.64
21102;BME280;10709;49.006;12.100;2023-07-20T19:28:33;48724.50;;;-146.00;34.83
21102;BME280;10709;49.006;12.100;2023-07-20T19:31:01;48706.84;;;-146.00;35.04
21102;BME280;10709;49.006;12.100;2023-07-20T19:33:28;48710.78;;;-146.00;35.05
21102;BME280;10709;49.006;12.100;2023-07-20T19:35:55;48704.91;;;-146.00;34.99
21102;BME280;10709;49.006;12.100;2023-07-20T19:38:25;48699.03;;;-146.00;35.06